sensor_id;sensor_type;location;lat;lon;timestamp;P1;durP1;ratioP1;P2;durP2;ratioP2
12042;SDS011;6082;49.306;12.862;2023-05-10T00:01:52;4.10;;;2.53;;
12042;SDS011;6082;49.306;12.862;2023-05-10T00:04:19;3.70;;;2.67;;
12042;SDS011;6082;49.306;12.862;2023-05-10T00:06:45;3.23;;;2.87;;
12042;SDS011;6082;49.306;12.862;2023-05-10T00:09:11;4.17;;;2.90;;
12042;SDS011;6082;49.306;12.862;2023-05-10T00:11:37;3.83;;;2.60;;
12042;SDS011;6082;49.306;12.862;2023-05-10T00:14:03;4.93;;;2.80;;
12042;SDS011;6082;49.306;12.862;2023-05-10T00:16:29;4.17;;;2.70;;
12042;SDS011;6082;49.306;12.862;2023-05-10T00:18:55;4.80;;;2.90;;
12042;SDS011;6082;49.306;12.862;2023-05-10T00:21:22;4.53;;;2.87;;
12042;SDS011;6082;49.306;12.862;2023-05-10T00:23:48;4.30;;;2.63;;
12042;SDS011;6082;49.306;12.862;2023-05-10T00:26:14;8.80;;;3.43;;
12042;SDS011;6082;49.306;12.862;2023-05-10T00:28:41;3.50;;;2.57;;
12042;SDS011;6082;49.306;12.862;2023-05-10T00:31:07;5.10;;;3.03;;
12042;SDS011;6082;49.306;12.862;2023-05-10T00:33:33;4.10;;;3.17;;
12042;SDS011;6082;49.306;12.862;2023-05-10T00:35:59;3.43;;;2.73;;
12042;SDS011;6082;49.306;12.862;2023-05-10T00:38:25;5.03;;;2.93;;
12042;SDS011;6082;49.306;12.862;2023-05-10T00:40:51;4.03;;;2.80;;
12042;SDS011;6082;49.306;12.862;2023-05-10T00:43:17;3.17;;;2.63;;
12042;SDS011;6082;49.306;12.862;2023-05-10T00:45:43;7.37;;;2.90;;
12042;SDS011;6082;49.306;12.862;2023-05-10T00:48:10;5.67;;;3.70;;
12042;SDS011;6082;49.306;12.862;2023-05-10T00:50:36;4.23;;;2.93;;
12042;SDS011;6082;49.306;12.862;2023-05-10T00:53:02;4.23;;;2.80;;
12042;SDS011;6082;49.306;12.862;2023-05-10T00:55:28;4.23;;;3.17;;
12042;SDS011;6082;49.306;12.862;2023-05-10T00:57:54;4.97;;;3.13;;
12042;SDS011;6082;49.306;12.862;2023-05-10T01:00:21;4.90;;;3.30;;
12042;SDS011;6082;49.306;12.862;2023-05-10T01:02:47;4.93;;;3.20;;
12042;SDS011;6082;49.306;12.862;2023-05-10T01:05:14;3.77;;;3.30;;
12042;SDS011;6082;49.306;12.862;2023-05-10T01:07:40;5.67;;;2.97;;
12042;SDS011;6082;49.306;12.862;2023-05-10T01:10:07;4.20;;;3.47;;
12042;SDS011;6082;49.306;12.862;2023-05-10T01:12:34;3.87;;;3.07;;
12042;SDS011;6082;49.306;12.862;2023-05-10T01:15:01;4.17;;;3.27;;
12042;SDS011;6082;49.306;12.862;2023-05-10T01:17:30;5.37;;;3.13;;
12042;SDS011;6082;49.306;12.862;2023-05-10T01:19:56;5.30;;;3.17;;
12042;SDS011;6082;49.306;12.862;2023-05-10T01:38:27;3.23;;;2.80;;
12042;SDS011;6082;49.306;12.862;2023-05-10T01:41:12;4.33;;;3.27;;
12042;SDS011;6082;49.306;12.862;2023-05-10T01:44:02;4.13;;;3.37;;
12042;SDS011;6082;49.306;12.862;2023-05-10T01:46:29;4.63;;;3.00;;
12042;SDS011;6082;49.306;12.862;2023-05-10T01:48:58;4.60;;;3.67;;
12042;SDS011;6082;49.306;12.862;2023-05-10T01:51:26;5.23;;;3.30;;
12042;SDS011;6082;49.306;12.862;2023-05-10T01:53:54;3.33;;;2.83;;
12042;SDS011;6082;49.306;12.862;2023-05-10T01:56:22;6.70;;;3.60;;
12042;SDS011;6082;49.306;12.862;2023-05-10T01:58:50;3.27;;;2.70;;
12042;SDS011;6082;49.306;12.862;2023-05-10T02:01:20;5.37;;;3.33;;
12042;SDS011;6082;49.306;12.862;2023-05-10T02:03:47;3.90;;;2.97;;
12042;SDS011;6082;49.306;12.862;2023-05-10T02:06:14;5.20;;;3.17;;
12042;SDS011;6082;49.306;12.862;2023-05-10T02:08:42;4.13;;;2.97;;
12042;SDS011;6082;49.306;12.862;2023-05-10T02:11:08;5.93;;;3.03;;
12042;SDS011;6082;49.306;12.862;2023-05-10T02:13:36;4.80;;;3.10;;
12042;SDS011;6082;49.306;12.862;2023-05-10T02:16:04;3.33;;;2.80;;
12042;SDS011;6082;49.306;12.862;2023-05-10T02:18:31;5.70;;;3.20;;
12042;SDS011;6082;49.306;12.862;2023-05-10T02:20:58;3.77;;;2.93;;
12042;SDS011;6082;49.306;12.862;2023-05-10T02:23:25;4.60;;;3.10;;
12042;SDS011;6082;49.306;12.862;2023-05-10T02:25:51;5.27;;;3.03;;
12042;SDS011;6082;49.306;12.862;2023-05-10T02:28:19;5.03;;;3.33;;
12042;SDS011;6082;49.306;12.862;2023-05-10T02:30:46;4.07;;;3.10;;
12042;SDS011;6082;49.306;12.862;2023-05-10T02:33:12;4.40;;;3.20;;
12042;SDS011;6082;49.306;12.862;2023-05-10T02:35:39;4.47;;;3.27;;
12042;SDS011;6082;49.306;12.862;2023-05-10T02:38:05;5.13;;;3.70;;
12042;SDS011;6082;49.306;12.862;2023-05-10T02:40:32;3.73;;;3.00;;
12042;SDS011;6082;49.306;12.862;2023-05-10T02:42:59;4.90;;;3.00;;
12042;SDS011;6082;49.306;12.862;2023-05-10T02:45:28;5.60;;;3.30;;
12042;SDS011;6082;49.306;12.862;2023-05-10T02:47:56;4.37;;;2.83;;
12042;SDS011;6082;49.306;12.862;2023-05-10T02:50:22;5.90;;;3.97;;
12042;SDS011;6082;49.306;12.862;2023-05-10T02:52:51;5.97;;;3.60;;
12042;SDS011;6082;49.306;12.862;2023-05-10T02:55:21;5.77;;;3.63;;
12042;SDS011;6082;49.306;12.862;2023-05-10T02:57:52;4.87;;;3.73;;
12042;SDS011;6082;49.306;12.862;2023-05-10T03:00:20;4.50;;;3.00;;
12042;SDS011;6082;49.306;12.862;2023-05-10T03:02:46;4.70;;;3.57;;
12042;SDS011;6082;49.306;12.862;2023-05-10T03:05:12;3.83;;;2.97;;
12042;SDS011;6082;49.306;12.862;2023-05-10T03:07:38;5.83;;;3.17;;
12042;SDS011;6082;49.306;12.862;2023-05-10T03:10:04;4.57;;;3.17;;
12042;SDS011;6082;49.306;12.862;2023-05-10T03:17:55;5.60;;;3.40;;
12042;SDS011;6082;49.306;12.862;2023-05-10T03:20:26;4.57;;;3.17;;
12042;SDS011;6082;49.306;12.862;2023-05-10T03:23:02;5.43;;;3.73;;
12042;SDS011;6082;49.306;12.862;2023-05-10T03:25:33;4.73;;;3.37;;
12042;SDS011;6082;49.306;12.862;2023-05-10T03:28:00;9.27;;;4.07;;
12042;SDS011;6082;49.306;12.862;2023-05-10T03:30:27;5.83;;;3.87;;
12042;SDS011;6082;49.306;12.862;2023-05-10T03:32:56;6.10;;;3.33;;
12042;SDS011;6082;49.306;12.862;2023-05-10T03:35:28;6.93;;;3.70;;
12042;SDS011;6082;49.306;12.862;2023-05-10T03:37:55;4.33;;;3.23;;
12042;SDS011;6082;49.306;12.862;2023-05-10T03:40:21;4.70;;;3.00;;
12042;SDS011;6082;49.306;12.862;2023-05-10T03:42:48;4.93;;;3.43;;
12042;SDS011;6082;49.306;12.862;2023-05-10T03:45:14;4.00;;;3.13;;
12042;SDS011;6082;49.306;12.862;2023-05-10T03:47:40;6.43;;;3.67;;
12042;SDS011;6082;49.306;12.862;2023-05-10T03:50:06;4.33;;;3.40;;
12042;SDS011;6082;49.306;12.862;2023-05-10T03:52:32;5.23;;;3.70;;
12042;SDS011;6082;49.306;12.862;2023-05-10T03:54:58;4.60;;;3.40;;
12042;SDS011;6082;49.306;12.862;2023-05-10T03:57:25;5.30;;;3.63;;
12042;SDS011;6082;49.306;12.862;2023-05-10T03:59:51;5.20;;;3.53;;
12042;SDS011;6082;49.306;12.862;2023-05-10T04:02:17;4.03;;;3.10;;
12042;SDS011;6082;49.306;12.862;2023-05-10T04:04:43;3.63;;;2.93;;
12042;SDS011;6082;49.306;12.862;2023-05-10T04:07:09;3.87;;;3.03;;
12042;SDS011;6082;49.306;12.862;2023-05-10T04:09:35;5.17;;;3.67;;
12042;SDS011;6082;49.306;12.862;2023-05-10T04:12:01;5.40;;;3.77;;
12042;SDS011;6082;49.306;12.862;2023-05-10T04:14:27;6.23;;;3.83;;
12042;SDS011;6082;49.306;12.862;2023-05-10T04:16:53;5.53;;;3.70;;
12042;SDS011;6082;49.306;12.862;2023-05-10T04:19:20;5.07;;;3.87;;
12042;SDS011;6082;49.306;12.862;2023-05-10T04:21:46;5.20;;;4.03;;
12042;SDS011;6082;49.306;12.862;2023-05-10T04:24:12;6.10;;;3.90;;
12042;SDS011;6082;49.306;12.862;2023-05-10T04:26:38;5.73;;;4.10;;
12042;SDS011;6082;49.306;12.862;2023-05-10T04:29:04;5.93;;;3.73;;
12042;SDS011;6082;49.306;12.862;2023-05-10T04:31:30;5.90;;;3.93;;
12042;SDS011;6082;49.306;12.862;2023-05-10T04:33:56;5.67;;;3.47;;
12042;SDS011;6082;49.306;12.862;2023-05-10T04:36:22;6.10;;;4.03;;
12042;SDS011;6082;49.306;12.862;2023-05-10T04:38:48;5.07;;;3.60;;
12042;SDS011;6082;49.306;12.862;2023-05-10T04:41:14;4.97;;;3.33;;
12042;SDS011;6082;49.306;12.862;2023-05-10T04:43:40;4.77;;;3.37;;
12042;SDS011;6082;49.306;12.862;2023-05-10T04:46:06;5.47;;;3.63;;
12042;SDS011;6082;49.306;12.862;2023-05-10T04:48:33;6.53;;;3.80;;
12042;SDS011;6082;49.306;12.862;2023-05-10T04:50:59;4.30;;;3.37;;
12042;SDS011;6082;49.306;12.862;2023-05-10T04:53:25;5.37;;;3.87;;
12042;SDS011;6082;49.306;12.862;2023-05-10T04:55:51;8.50;;;3.67;;
12042;SDS011;6082;49.306;12.862;2023-05-10T04:58:20;4.60;;;3.20;;
12042;SDS011;6082;49.306;12.862;2023-05-10T05:00:46;5.33;;;4.03;;
12042;SDS011;6082;49.306;12.862;2023-05-10T05:03:14;5.77;;;3.80;;
12042;SDS011;6082;49.306;12.862;2023-05-10T05:05:40;4.87;;;4.20;;
12042;SDS011;6082;49.306;12.862;2023-05-10T05:08:06;7.27;;;3.73;;
12042;SDS011;6082;49.306;12.862;2023-05-10T05:10:32;5.97;;;3.87;;
12042;SDS011;6082;49.306;12.862;2023-05-10T05:12:58;5.33;;;3.90;;
12042;SDS011;6082;49.306;12.862;2023-05-10T05:15:24;7.33;;;4.17;;
12042;SDS011;6082;49.306;12.862;2023-05-10T05:17:51;6.37;;;4.13;;
12042;SDS011;6082;49.306;12.862;2023-05-10T05:20:17;6.73;;;4.07;;
12042;SDS011;6082;49.306;12.862;2023-05-10T05:22:43;5.87;;;4.20;;
12042;SDS011;6082;49.306;12.862;2023-05-10T05:25:10;5.33;;;3.43;;
12042;SDS011;6082;49.306;12.862;2023-05-10T05:27:36;5.73;;;3.90;;
12042;SDS011;6082;49.306;12.862;2023-05-10T05:30:03;5.33;;;3.70;;
12042;SDS011;6082;49.306;12.862;2023-05-10T05:32:29;5.33;;;4.20;;
12042;SDS011;6082;49.306;12.862;2023-05-10T05:34:55;5.13;;;3.80;;
12042;SDS011;6082;49.306;12.862;2023-05-10T05:37:21;5.17;;;3.87;;
12042;SDS011;6082;49.306;12.862;2023-05-10T05:39:48;5.47;;;3.77;;
12042;SDS011;6082;49.306;12.862;2023-05-10T05:42:14;6.20;;;4.20;;
12042;SDS011;6082;49.306;12.862;2023-05-10T05:44:41;5.30;;;3.60;;
12042;SDS011;6082;49.306;12.862;2023-05-10T05:47:07;5.37;;;4.07;;
12042;SDS011;6082;49.306;12.862;2023-05-10T05:49:33;6.30;;;3.67;;
12042;SDS011;6082;49.306;12.862;2023-05-10T05:52:00;5.60;;;4.17;;
12042;SDS011;6082;49.306;12.862;2023-05-10T05:54:27;5.10;;;3.70;;
12042;SDS011;6082;49.306;12.862;2023-05-10T05:56:56;4.40;;;3.30;;
12042;SDS011;6082;49.306;12.862;2023-05-10T05:59:22;5.13;;;3.87;;
12042;SDS011;6082;49.306;12.862;2023-05-10T06:01:48;7.20;;;3.97;;
12042;SDS011;6082;49.306;12.862;2023-05-10T06:04:15;5.80;;;4.03;;
12042;SDS011;6082;49.306;12.862;2023-05-10T06:06:44;6.83;;;3.80;;
12042;SDS011;6082;49.306;12.862;2023-05-10T06:09:10;5.53;;;4.10;;
12042;SDS011;6082;49.306;12.862;2023-05-10T06:11:37;7.10;;;4.40;;
12042;SDS011;6082;49.306;12.862;2023-05-10T06:14:03;5.23;;;3.90;;
12042;SDS011;6082;49.306;12.862;2023-05-10T06:16:32;7.53;;;4.37;;
12042;SDS011;6082;49.306;12.862;2023-05-10T06:18:58;5.43;;;3.83;;
12042;SDS011;6082;49.306;12.862;2023-05-10T06:21:24;6.93;;;4.43;;
12042;SDS011;6082;49.306;12.862;2023-05-10T06:23:50;6.17;;;4.40;;
12042;SDS011;6082;49.306;12.862;2023-05-10T06:26:16;6.47;;;4.17;;
12042;SDS011;6082;49.306;12.862;2023-05-10T06:28:42;7.53;;;4.07;;
12042;SDS011;6082;49.306;12.862;2023-05-10T06:31:08;5.97;;;4.03;;
12042;SDS011;6082;49.306;12.862;2023-05-10T06:33:36;5.53;;;4.30;;
12042;SDS011;6082;49.306;12.862;2023-05-10T06:36:02;7.60;;;4.70;;
12042;SDS011;6082;49.306;12.862;2023-05-10T06:38:29;7.17;;;4.60;;
12042;SDS011;6082;49.306;12.862;2023-05-10T06:40:55;7.93;;;4.40;;
12042;SDS011;6082;49.306;12.862;2023-05-10T06:43:21;7.43;;;4.43;;
12042;SDS011;6082;49.306;12.862;2023-05-10T06:45:50;6.07;;;4.20;;
12042;SDS011;6082;49.306;12.862;2023-05-10T06:48:16;6.93;;;4.53;;
12042;SDS011;6082;49.306;12.862;2023-05-10T06:50:42;6.83;;;3.73;;
12042;SDS011;6082;49.306;12.862;2023-05-10T06:53:09;6.53;;;4.77;;
12042;SDS011;6082;49.306;12.862;2023-05-10T06:55:35;6.87;;;4.70;;
12042;SDS011;6082;49.306;12.862;2023-05-10T06:58:01;5.20;;;4.10;;
12042;SDS011;6082;49.306;12.862;2023-05-10T07:00:27;6.20;;;4.40;;
12042;SDS011;6082;49.306;12.862;2023-05-10T07:02:53;6.13;;;4.50;;
12042;SDS011;6082;49.306;12.862;2023-05-10T07:05:20;6.07;;;4.27;;
12042;SDS011;6082;49.306;12.862;2023-05-10T07:07:47;5.20;;;4.10;;
12042;SDS011;6082;49.306;12.862;2023-05-10T07:10:13;6.17;;;4.17;;
12042;SDS011;6082;49.306;12.862;2023-05-10T07:12:39;5.83;;;4.10;;
12042;SDS011;6082;49.306;12.862;2023-05-10T07:15:06;6.03;;;4.77;;
12042;SDS011;6082;49.306;12.862;2023-05-10T07:17:32;5.80;;;4.57;;
12042;SDS011;6082;49.306;12.862;2023-05-10T07:19:58;5.83;;;4.43;;
12042;SDS011;6082;49.306;12.862;2023-05-10T07:22:31;5.37;;;4.20;;
12042;SDS011;6082;49.306;12.862;2023-05-10T07:24:57;5.10;;;4.23;;
12042;SDS011;6082;49.306;12.862;2023-05-10T07:27:23;6.70;;;4.80;;
12042;SDS011;6082;49.306;12.862;2023-05-10T07:29:49;7.53;;;5.00;;
12042;SDS011;6082;49.306;12.862;2023-05-10T07:32:15;6.63;;;4.60;;
12042;SDS011;6082;49.306;12.862;2023-05-10T07:34:41;6.07;;;4.17;;
12042;SDS011;6082;49.306;12.862;2023-05-10T07:37:07;7.30;;;4.43;;
12042;SDS011;6082;49.306;12.862;2023-05-10T07:39:33;6.37;;;4.83;;
12042;SDS011;6082;49.306;12.862;2023-05-10T07:41:59;6.70;;;4.73;;
12042;SDS011;6082;49.306;12.862;2023-05-10T07:44:25;8.60;;;4.60;;
12042;SDS011;6082;49.306;12.862;2023-05-10T07:46:52;7.33;;;4.50;;
12042;SDS011;6082;49.306;12.862;2023-05-10T07:49:18;7.57;;;4.47;;
12042;SDS011;6082;49.306;12.862;2023-05-10T07:51:44;5.80;;;4.37;;
12042;SDS011;6082;49.306;12.862;2023-05-10T07:54:10;6.43;;;5.03;;
12042;SDS011;6082;49.306;12.862;2023-05-10T07:56:36;5.83;;;4.20;;
12042;SDS011;6082;49.306;12.862;2023-05-10T07:59:03;7.27;;;4.83;;
12042;SDS011;6082;49.306;12.862;2023-05-10T08:01:30;7.77;;;4.70;;
12042;SDS011;6082;49.306;12.862;2023-05-10T08:04:00;10.23;;;5.10;;
12042;SDS011;6082;49.306;12.862;2023-05-10T08:06:26;6.67;;;4.60;;
12042;SDS011;6082;49.306;12.862;2023-05-10T08:08:54;6.17;;;4.43;;
12042;SDS011;6082;49.306;12.862;2023-05-10T08:11:21;5.80;;;4.33;;
12042;SDS011;6082;49.306;12.862;2023-05-10T08:13:48;9.47;;;4.57;;
12042;SDS011;6082;49.306;12.862;2023-05-10T08:16:14;5.13;;;4.00;;
12042;SDS011;6082;49.306;12.862;2023-05-10T08:18:41;7.33;;;4.53;;
12042;SDS011;6082;49.306;12.862;2023-05-10T08:21:07;6.30;;;4.70;;
12042;SDS011;6082;49.306;12.862;2023-05-10T08:23:33;6.07;;;4.80;;
12042;SDS011;6082;49.306;12.862;2023-05-10T08:25:59;5.97;;;4.60;;
12042;SDS011;6082;49.306;12.862;2023-05-10T08:28:25;5.97;;;4.17;;
12042;SDS011;6082;49.306;12.862;2023-05-10T08:30:52;6.03;;;4.80;;
12042;SDS011;6082;49.306;12.862;2023-05-10T08:33:18;8.93;;;4.53;;
12042;SDS011;6082;49.306;12.862;2023-05-10T08:35:45;4.60;;;4.03;;
12042;SDS011;6082;49.306;12.862;2023-05-10T08:38:11;6.23;;;4.63;;
12042;SDS011;6082;49.306;12.862;2023-05-10T08:40:37;7.30;;;4.83;;
12042;SDS011;6082;49.306;12.862;2023-05-10T08:43:05;6.57;;;4.87;;
12042;SDS011;6082;49.306;12.862;2023-05-10T08:45:32;7.87;;;5.80;;
12042;SDS011;6082;49.306;12.862;2023-05-10T08:47:59;8.67;;;5.33;;
12042;SDS011;6082;49.306;12.862;2023-05-10T08:50:27;7.57;;;5.37;;
12042;SDS011;6082;49.306;12.862;2023-05-10T08:52:53;8.40;;;5.33;;
12042;SDS011;6082;49.306;12.862;2023-05-10T08:55:24;9.33;;;5.60;;
12042;SDS011;6082;49.306;12.862;2023-05-10T08:57:50;9.23;;;5.77;;
12042;SDS011;6082;49.306;12.862;2023-05-10T09:00:16;8.77;;;4.77;;
12042;SDS011;6082;49.306;12.862;2023-05-10T09:02:43;7.53;;;5.30;;
12042;SDS011;6082;49.306;12.862;2023-05-10T09:05:11;6.13;;;4.37;;
12042;SDS011;6082;49.306;12.862;2023-05-10T09:07:38;6.30;;;4.53;;
12042;SDS011;6082;49.306;12.862;2023-05-10T09:10:04;6.33;;;4.77;;
12042;SDS011;6082;49.306;12.862;2023-05-10T09:12:30;7.17;;;4.80;;
12042;SDS011;6082;49.306;12.862;2023-05-10T09:14:57;8.70;;;4.93;;
12042;SDS011;6082;49.306;12.862;2023-05-10T09:17:25;7.37;;;5.10;;
12042;SDS011;6082;49.306;12.862;2023-05-10T09:19:57;6.40;;;5.07;;
12042;SDS011;6082;49.306;12.862;2023-05-10T09:22:23;5.53;;;4.20;;
12042;SDS011;6082;49.306;12.862;2023-05-10T09:25:02;8.27;;;4.80;;
12042;SDS011;6082;49.306;12.862;2023-05-10T09:27:28;6.60;;;5.30;;
12042;SDS011;6082;49.306;12.862;2023-05-10T09:29:55;8.50;;;5.60;;
12042;SDS011;6082;49.306;12.862;2023-05-10T09:32:21;7.57;;;5.33;;
12042;SDS011;6082;49.306;12.862;2023-05-10T09:34:47;7.50;;;4.73;;
12042;SDS011;6082;49.306;12.862;2023-05-10T09:37:16;6.20;;;5.43;;
12042;SDS011;6082;49.306;12.862;2023-05-10T09:39:42;8.10;;;5.63;;
12042;SDS011;6082;49.306;12.862;2023-05-10T09:42:08;6.77;;;5.13;;
12042;SDS011;6082;49.306;12.862;2023-05-10T09:44:35;6.80;;;5.30;;
12042;SDS011;6082;49.306;12.862;2023-05-10T09:47:01;9.97;;;5.30;;
12042;SDS011;6082;49.306;12.862;2023-05-10T09:49:28;6.77;;;5.10;;
12042;SDS011;6082;49.306;12.862;2023-05-10T09:52:12;7.97;;;5.77;;
12042;SDS011;6082;49.306;12.862;2023-05-10T09:54:38;7.33;;;5.40;;
12042;SDS011;6082;49.306;12.862;2023-05-10T09:57:20;9.23;;;5.63;;
12042;SDS011;6082;49.306;12.862;2023-05-10T09:59:47;8.23;;;6.00;;
12042;SDS011;6082;49.306;12.862;2023-05-10T10:02:13;7.77;;;5.47;;
12042;SDS011;6082;49.306;12.862;2023-05-10T10:04:39;7.83;;;5.73;;
12042;SDS011;6082;49.306;12.862;2023-05-10T10:07:06;9.53;;;6.03;;
12042;SDS011;6082;49.306;12.862;2023-05-10T10:09:33;8.50;;;5.43;;
12042;SDS011;6082;49.306;12.862;2023-05-10T10:11:59;7.23;;;5.57;;
12042;SDS011;6082;49.306;12.862;2023-05-10T10:14:26;7.53;;;5.47;;
12042;SDS011;6082;49.306;12.862;2023-05-10T10:16:52;8.27;;;6.07;;
12042;SDS011;6082;49.306;12.862;2023-05-10T10:19:18;7.60;;;5.60;;
12042;SDS011;6082;49.306;12.862;2023-05-10T10:21:47;8.60;;;5.67;;
12042;SDS011;6082;49.306;12.862;2023-05-10T10:24:13;10.23;;;6.50;;
12042;SDS011;6082;49.306;12.862;2023-05-10T10:26:39;7.40;;;5.37;;
12042;SDS011;6082;49.306;12.862;2023-05-10T10:29:31;8.43;;;5.67;;
12042;SDS011;6082;49.306;12.862;2023-05-10T10:34:28;7.27;;;5.00;;
12042;SDS011;6082;49.306;12.862;2023-05-10T10:36:55;6.53;;;4.63;;
12042;SDS011;6082;49.306;12.862;2023-05-10T10:39:22;6.93;;;4.77;;
12042;SDS011;6082;49.306;12.862;2023-05-10T10:50:02;6.33;;;4.70;;
12042;SDS011;6082;49.306;12.862;2023-05-10T10:57:28;6.33;;;4.70;;
12042;SDS011;6082;49.306;12.862;2023-05-10T11:02:43;7.67;;;5.57;;
12042;SDS011;6082;49.306;12.862;2023-05-10T11:07:55;9.90;;;5.80;;
12042;SDS011;6082;49.306;12.862;2023-05-10T11:10:22;8.83;;;5.87;;
12042;SDS011;6082;49.306;12.862;2023-05-10T11:13:01;7.37;;;5.33;;
12042;SDS011;6082;49.306;12.862;2023-05-10T11:15:37;8.13;;;6.33;;
12042;SDS011;6082;49.306;12.862;2023-05-10T11:18:20;8.27;;;6.17;;
12042;SDS011;6082;49.306;12.862;2023-05-10T11:20:50;6.53;;;5.80;;
12042;SDS011;6082;49.306;12.862;2023-05-10T11:23:16;8.70;;;6.37;;
12042;SDS011;6082;49.306;12.862;2023-05-10T11:25:43;9.07;;;6.00;;
12042;SDS011;6082;49.306;12.862;2023-05-10T11:28:10;6.20;;;5.00;;
12042;SDS011;6082;49.306;12.862;2023-05-10T11:30:37;7.60;;;5.33;;
12042;SDS011;6082;49.306;12.862;2023-05-10T11:33:04;6.60;;;4.80;;
12042;SDS011;6082;49.306;12.862;2023-05-10T11:35:31;6.47;;;5.27;;
12042;SDS011;6082;49.306;12.862;2023-05-10T11:38:04;8.57;;;5.17;;
12042;SDS011;6082;49.306;12.862;2023-05-10T11:40:30;6.17;;;4.87;;
12042;SDS011;6082;49.306;12.862;2023-05-10T11:42:56;8.67;;;5.20;;
12042;SDS011;6082;49.306;12.862;2023-05-10T11:45:26;6.80;;;4.90;;
12042;SDS011;6082;49.306;12.862;2023-05-10T11:47:54;8.47;;;5.87;;
12042;SDS011;6082;49.306;12.862;2023-05-10T11:50:20;7.73;;;4.93;;
12042;SDS011;6082;49.306;12.862;2023-05-10T11:52:49;6.57;;;5.03;;
12042;SDS011;6082;49.306;12.862;2023-05-10T11:55:16;6.80;;;4.93;;
12042;SDS011;6082;49.306;12.862;2023-05-10T11:57:42;5.73;;;4.70;;
12042;SDS011;6082;49.306;12.862;2023-05-10T12:00:11;6.83;;;5.30;;
12042;SDS011;6082;49.306;12.862;2023-05-10T12:02:37;7.03;;;5.10;;
12042;SDS011;6082;49.306;12.862;2023-05-10T12:05:03;6.17;;;5.30;;
12042;SDS011;6082;49.306;12.862;2023-05-10T12:07:30;6.77;;;5.60;;
12042;SDS011;6082;49.306;12.862;2023-05-10T12:10:06;6.60;;;4.97;;
12042;SDS011;6082;49.306;12.862;2023-05-10T12:12:39;10.23;;;5.40;;
12042;SDS011;6082;49.306;12.862;2023-05-10T12:15:10;6.90;;;5.10;;
12042;SDS011;6082;49.306;12.862;2023-05-10T12:17:37;5.93;;;4.63;;
12042;SDS011;6082;49.306;12.862;2023-05-10T12:20:17;7.57;;;5.37;;
12042;SDS011;6082;49.306;12.862;2023-05-10T12:22:44;5.90;;;4.70;;
12042;SDS011;6082;49.306;12.862;2023-05-10T12:25:10;5.00;;;4.10;;
12042;SDS011;6082;49.306;12.862;2023-05-10T12:27:36;5.73;;;4.33;;
12042;SDS011;6082;49.306;12.862;2023-05-10T12:30:02;5.60;;;4.10;;
12042;SDS011;6082;49.306;12.862;2023-05-10T12:32:38;5.40;;;4.13;;
12042;SDS011;6082;49.306;12.862;2023-05-10T12:35:04;4.77;;;4.20;;
12042;SDS011;6082;49.306;12.862;2023-05-10T12:37:30;6.87;;;4.50;;
12042;SDS011;6082;49.306;12.862;2023-05-10T12:40:00;5.87;;;4.20;;
12042;SDS011;6082;49.306;12.862;2023-05-10T12:42:27;5.57;;;4.07;;
12042;SDS011;6082;49.306;12.862;2023-05-10T12:44:55;6.70;;;4.43;;
12042;SDS011;6082;49.306;12.862;2023-05-10T12:47:21;7.23;;;4.77;;
12042;SDS011;6082;49.306;12.862;2023-05-10T12:49:47;5.27;;;4.03;;
12042;SDS011;6082;49.306;12.862;2023-05-10T12:52:13;5.17;;;4.53;;
12042;SDS011;6082;49.306;12.862;2023-05-10T12:54:39;6.93;;;4.83;;
12042;SDS011;6082;49.306;12.862;2023-05-10T12:57:06;5.33;;;4.10;;
12042;SDS011;6082;49.306;12.862;2023-05-10T12:59:32;5.97;;;4.50;;
12042;SDS011;6082;49.306;12.862;2023-05-10T13:01:58;5.53;;;4.40;;
12042;SDS011;6082;49.306;12.862;2023-05-10T13:04:24;5.43;;;4.07;;
12042;SDS011;6082;49.306;12.862;2023-05-10T13:06:50;5.17;;;3.57;;
12042;SDS011;6082;49.306;12.862;2023-05-10T13:09:16;5.17;;;3.80;;
12042;SDS011;6082;49.306;12.862;2023-05-10T13:11:42;5.33;;;3.90;;
12042;SDS011;6082;49.306;12.862;2023-05-10T13:14:08;4.53;;;3.90;;
12042;SDS011;6082;49.306;12.862;2023-05-10T13:16:34;5.53;;;4.13;;
12042;SDS011;6082;49.306;12.862;2023-05-10T13:19:00;6.23;;;4.33;;
12042;SDS011;6082;49.306;12.862;2023-05-10T13:21:30;5.43;;;4.37;;
12042;SDS011;6082;49.306;12.862;2023-05-10T13:23:56;5.53;;;4.30;;
12042;SDS011;6082;49.306;12.862;2023-05-10T13:26:22;5.87;;;4.40;;
12042;SDS011;6082;49.306;12.862;2023-05-10T13:28:48;6.47;;;4.07;;
12042;SDS011;6082;49.306;12.862;2023-05-10T13:31:16;5.70;;;4.30;;
12042;SDS011;6082;49.306;12.862;2023-05-10T13:33:42;5.43;;;3.87;;
12042;SDS011;6082;49.306;12.862;2023-05-10T13:36:08;8.23;;;4.83;;
12042;SDS011;6082;49.306;12.862;2023-05-10T13:38:34;6.57;;;4.57;;
12042;SDS011;6082;49.306;12.862;2023-05-10T13:41:01;4.47;;;3.70;;
12042;SDS011;6082;49.306;12.862;2023-05-10T13:43:27;5.60;;;4.43;;
12042;SDS011;6082;49.306;12.862;2023-05-10T13:45:53;7.00;;;4.93;;
12042;SDS011;6082;49.306;12.862;2023-05-10T13:48:19;6.50;;;4.70;;
12042;SDS011;6082;49.306;12.862;2023-05-10T13:50:46;6.10;;;4.90;;
12042;SDS011;6082;49.306;12.862;2023-05-10T13:53:12;7.90;;;5.30;;
12042;SDS011;6082;49.306;12.862;2023-05-10T13:55:39;6.93;;;5.07;;
12042;SDS011;6082;49.306;12.862;2023-05-10T13:58:05;7.07;;;5.07;;
12042;SDS011;6082;49.306;12.862;2023-05-10T14:00:31;5.33;;;4.60;;
12042;SDS011;6082;49.306;12.862;2023-05-10T14:02:57;6.43;;;4.87;;
12042;SDS011;6082;49.306;12.862;2023-05-10T14:05:23;5.87;;;4.70;;
12042;SDS011;6082;49.306;12.862;2023-05-10T14:07:49;8.00;;;5.17;;
12042;SDS011;6082;49.306;12.862;2023-05-10T14:10:16;7.63;;;5.40;;
12042;SDS011;6082;49.306;12.862;2023-05-10T14:12:42;8.23;;;5.20;;
12042;SDS011;6082;49.306;12.862;2023-05-10T14:15:08;7.37;;;5.30;;
12042;SDS011;6082;49.306;12.862;2023-05-10T14:17:36;7.23;;;5.10;;
12042;SDS011;6082;49.306;12.862;2023-05-10T14:20:02;6.80;;;4.77;;
12042;SDS011;6082;49.306;12.862;2023-05-10T14:22:29;5.93;;;4.03;;
12042;SDS011;6082;49.306;12.862;2023-05-10T14:24:55;6.17;;;4.93;;
12042;SDS011;6082;49.306;12.862;2023-05-10T14:27:21;5.90;;;4.30;;
12042;SDS011;6082;49.306;12.862;2023-05-10T14:29:48;6.00;;;4.80;;
12042;SDS011;6082;49.306;12.862;2023-05-10T14:32:14;6.97;;;5.00;;
12042;SDS011;6082;49.306;12.862;2023-05-10T14:34:40;6.20;;;4.57;;
12042;SDS011;6082;49.306;12.862;2023-05-10T14:37:06;6.97;;;5.00;;
12042;SDS011;6082;49.306;12.862;2023-05-10T14:39:32;6.63;;;5.17;;
12042;SDS011;6082;49.306;12.862;2023-05-10T14:41:59;6.80;;;5.03;;
12042;SDS011;6082;49.306;12.862;2023-05-10T14:44:25;6.70;;;4.70;;
12042;SDS011;6082;49.306;12.862;2023-05-10T14:46:51;6.47;;;4.87;;
12042;SDS011;6082;49.306;12.862;2023-05-10T14:49:17;6.37;;;4.83;;
12042;SDS011;6082;49.306;12.862;2023-05-10T14:51:43;7.07;;;5.10;;
12042;SDS011;6082;49.306;12.862;2023-05-10T14:54:10;6.87;;;5.07;;
12042;SDS011;6082;49.306;12.862;2023-05-10T14:56:36;6.33;;;4.40;;
12042;SDS011;6082;49.306;12.862;2023-05-10T14:59:02;6.67;;;4.53;;
12042;SDS011;6082;49.306;12.862;2023-05-10T15:01:29;5.93;;;4.63;;
12042;SDS011;6082;49.306;12.862;2023-05-10T15:03:56;7.47;;;4.60;;
12042;SDS011;6082;49.306;12.862;2023-05-10T15:06:23;5.63;;;4.47;;
12042;SDS011;6082;49.306;12.862;2023-05-10T15:08:50;4.47;;;3.63;;
12042;SDS011;6082;49.306;12.862;2023-05-10T15:11:16;4.57;;;3.70;;
12042;SDS011;6082;49.306;12.862;2023-05-10T15:13:42;5.60;;;4.30;;
12042;SDS011;6082;49.306;12.862;2023-05-10T15:16:08;4.97;;;4.07;;
12042;SDS011;6082;49.306;12.862;2023-05-10T15:18:35;6.87;;;4.73;;
12042;SDS011;6082;49.306;12.862;2023-05-10T15:21:08;4.43;;;3.80;;
12042;SDS011;6082;49.306;12.862;2023-05-10T15:23:39;6.47;;;4.43;;
12042;SDS011;6082;49.306;12.862;2023-05-10T15:26:05;6.23;;;4.80;;
12042;SDS011;6082;49.306;12.862;2023-05-10T15:28:31;6.27;;;5.00;;
12042;SDS011;6082;49.306;12.862;2023-05-10T15:30:58;7.10;;;5.30;;